Time;durP1;ratioP1;P1;durP2;ratioP2;P2;SDS_P1;SDS_P2;PMS_P1;PMS_P2;Temp;Humidity;BMP_temperature;BMP_pressure;BME280_temperature;BME280_humidity;BME280_pressure;Samples;Min_cycle;Max_cycle;Signal;HPM_P1;HPM_P2
2022/03/16 00:01:25;;;;;;;31.55;19.23;;;5.90;99.90;;;;;;5043682;28;20040;-60
2022/03/16 00:03:50;;;;;;;28.35;22.42;;;5.90;99.90;;;;;;5040044;28;20089;-59
2022/03/16 00:06:16;;;;;;;37.60;22.50;;;5.90;99.90;;;;;;5042970;28;20095;-59
2022/03/16 00:08:41;;;;;;;32.15;21.15;;;5.90;99.90;;;;;;5020710;28;20045;-59
2022/03/16 00:11:07;;;;;;;61.75;26.88;;;5.80;99.90;;;;;;5046289;28;20500;-59
2022/03/16 00:13:33;;;;;;;86.50;27.02;;;5.70;99.90;;;;;;5041774;28;20049;-59
2022/03/16 00:15:59;;;;;;;93.93;25.98;;;5.60;99.90;;;;;;5045136;28;20041;-59
2022/03/16 00:18:24;;;;;;;114.40;27.30;;;5.40;99.90;;;;;;5024613;28;20059;-59
2022/03/16 00:20:50;;;;;;;17.27;12.82;;;5.30;99.90;;;;;;5017509;28;20067;-59
2022/03/16 00:23:16;;;;;;;45.28;17.13;;;5.30;99.90;;;;;;5043733;28;20477;-59
2022/03/16 00:25:42;;;;;;;105.88;22.67;;;5.30;99.90;;;;;;5042385;28;20041;-59
2022/03/16 00:28:08;;;;;;;90.63;22.52;;;5.30;99.90;;;;;;5047163;28;20041;-60
2022/03/16 00:30:33;;;;;;;29.17;15.02;;;5.20;99.90;;;;;;5037736;28;20098;-61
2022/03/16 00:32:59;;;;;;;14.38;11.55;;;5.10;99.90;;;;;;5037701;28;20110;-59
2022/03/16 00:35:25;;;;;;;13.20;11.45;;;5.10;99.90;;;;;;5029700;28;20067;-62
2022/03/16 00:37:50;;;;;;;14.80;12.10;;;5.10;99.90;;;;;;5037343;28;20045;-60
2022/03/16 00:40:16;;;;;;;15.80;12.70;;;5.10;99.90;;;;;;5056432;28;20055;-60
2022/03/16 00:42:45;;;;;;;12.82;10.30;;;5.20;99.90;;;;;;5056671;28;20041;-59
2022/03/16 00:45:13;;;;;;;20.48;12.57;;;5.20;99.90;;;;;;5055728;28;20048;-60
2022/03/16 00:47:39;;;;;;;21.92;14.00;;;5.30;99.90;;;;;;5056413;28;20079;-59
2022/03/16 00:50:05;;;;;;;17.67;13.57;;;5.30;99.90;;;;;;5056543;28;20048;-60
2022/03/16 00:52:31;;;;;;;48.22;17.63;;;5.20;99.90;;;;;;5056055;28;20217;-60
2022/03/16 00:54:56;;;;;;;143.98;29.48;;;5.10;99.90;;;;;;5037901;28;20045;-59
2022/03/16 00:57:22;;;;;;;114.68;20.52;;;5.00;99.90;;;;;;5056252;28;20056;-61
2022/03/16 00:59:47;;;;;;;321.52;44.80;;;4.80;99.90;;;;;;5055669;28;20117;-59
2022/03/16 01:02:13;;;;;;;208.18;36.35;;;4.50;99.90;;;;;;5044335;28;20183;-60
2022/03/16 01:04:39;;;;;;;142.48;28.65;;;4.30;99.90;;;;;;5050283;28;20509;-60
2022/03/16 01:07:05;;;;;;;93.03;19.45;;;4.20;99.90;;;;;;5055405;28;20085;-60
2022/03/16 01:09:31;;;;;;;46.30;13.20;;;4.00;99.90;;;;;;5057073;28;20049;-60
2022/03/16 01:11:56;;;;;;;12.85;10.77;;;4.00;99.90;;;;;;5056868;28;20114;-59
2022/03/16 01:14:22;;;;;;;10.38;8.30;;;4.00;99.90;;;;;;5056771;28;20237;-58
2022/03/16 01:16:47;;;;;;;11.35;8.93;;;4.10;99.90;;;;;;5057340;28;20040;-60
2022/03/16 01:19:14;;;;;;;11.38;9.52;;;4.20;99.90;;;;;;5056918;28;20040;-59
2022/03/16 01:21:41;;;;;;;12.05;10.18;;;4.30;99.90;;;;;;5056863;28;20071;-60
2022/03/16 01:24:07;;;;;;;67.97;16.85;;;4.10;99.90;;;;;;5057025;28;20097;-60
2022/03/16 01:26:34;;;;;;;12.55;9.93;;;4.20;99.90;;;;;;5056769;28;20123;-60
2022/03/16 01:29:01;;;;;;;10.30;8.25;;;4.30;99.90;;;;;;5055947;28;20832;-60
2022/03/16 01:31:27;;;;;;;12.15;9.93;;;4.40;99.90;;;;;;5056503;28;20126;-59
2022/03/16 01:33:53;;;;;;;12.07;9.70;;;4.40;99.90;;;;;;5056092;28;20064;-60
2022/03/16 01:36:19;;;;;;;15.93;12.65;;;4.40;99.90;;;;;;5056113;28;20044;-60
2022/03/16 01:38:45;;;;;;;14.48;10.23;;;4.50;99.90;;;;;;5028992;28;20048;-60
2022/03/16 01:41:11;;;;;;;18.70;11.50;;;4.50;99.90;;;;;;5053912;28;20052;-60
2022/03/16 01:43:36;;;;;;;16.40;11.20;;;4.60;99.90;;;;;;5054464;28;20045;-60
2022/03/16 01:46:02;;;;;;;16.58;12.88;;;4.60;99.90;;;;;;5054073;28;20099;-61
2022/03/16 01:48:28;;;;;;;19.83;13.90;;;4.70;99.90;;;;;;5053029;28;20045;-60
2022/03/16 01:50:54;;;;;;;16.70;13.77;;;4.70;99.90;;;;;;5054310;28;20051;-59
2022/03/16 01:53:20;;;;;;;19.80;13.75;;;4.10;99.90;;;;;;5054488;28;20044;-60
2022/03/16 01:55:47;;;;;;;16.25;11.80;;;4.80;99.90;;;;;;5052861;28;20056;-60
2022/03/16 01:58:12;;;;;;;20.48;13.98;;;4.80;99.90;;;;;;5054185;28;20052;-59
2022/03/16 02:00:39;;;;;;;17.52;12.63;;;4.80;99.90;;;;;;5055683;28;20486;-59
2022/03/16 02:03:07;;;;;;;18.08;12.82;;;4.80;99.90;;;;;;5055109;28;20044;-59
2022/03/16 02:05:33;;;;;;;25.25;15.82;;;4.80;99.90;;;;;;5055557;28;20174;-60
2022/03/16 02:07:59;;;;;;;20.08;14.07;;;4.80;99.90;;;;;;5055596;28;20124;-61
2022/03/16 02:10:25;;;;;;;22.90;15.98;;;4.90;99.90;;;;;;5054425;28;20486;-59
2022/03/16 02:12:51;;;;;;;28.23;17.50;;;4.90;99.90;;;;;;5055159;28;20090;-59
2022/03/16 02:15:19;;;;;;;33.15;20.15;;;5.00;99.90;;;;;;5055057;28;20883;-60
2022/03/16 02:17:45;;;;;;;28.55;17.92;;;5.00;99.90;;;;;;5054566;28;20396;-60
2022/03/16 02:20:11;;;;;;;32.30;17.73;;;5.00;99.90;;;;;;5054916;28;20159;-60
2022/03/16 02:23:07;;;;;;;29.33;20.10;;;5.00;99.90;;;;;;5054935;28;20122;-60
2022/03/16 02:25:34;;;;;;;91.13;34.17;;;5.00;99.90;;;;;;5050827;28;20163;-59
2022/03/16 02:28:00;;;;;;;449.08;81.63;;;4.90;99.90;;;;;;5037306;28;20049;-60
2022/03/16 02:30:30;;;;;;;425.10;58.97;;;4.60;99.90;;;;;;5055269;28;20047;-60
2022/03/16 02:32:56;;;;;;;387.55;47.88;;;4.40;99.90;;;;;;5055058;28;20068;-60
2022/03/16 02:35:22;;;;;;;331.77;40.28;;;4.10;99.90;;;;;;5055031;28;20617;-60
2022/03/16 02:37:48;;;;;;;350.00;46.17;;;3.80;99.90;;;;;;5054828;28;20484;-60
2022/03/16 02:40:20;;;;;;;106.05;21.50;;;3.60;99.90;;;;;;5055456;28;20118;-60
2022/03/16 02:42:46;;;;;;;43.15;14.27;;;3.60;99.90;;;;;;5055407;28;20102;-59
2022/03/16 02:45:12;;;;;;;230.52;33.40;;;3.60;99.90;;;;;;5055049;28;20446;-60
2022/03/16 02:47:40;;;;;;;176.60;30.50;;;3.70;99.90;;;;;;5033626;28;20075;-62
2022/03/16 02:50:06;;;;;;;414.88;58.35;;;3.70;99.90;;;;;;5047366;28;20147;-60
2022/03/16 02:52:32;;;;;;;165.48;32.55;;;3.70;99.90;;;;;;5052273;28;20124;-60
2022/03/16 02:54:57;;;;;;;106.63;22.27;;;3.60;99.90;;;;;;5054254;28;20571;-59
2022/03/16 02:57:23;;;;;;;65.45;20.65;;;3.60;99.90;;;;;;5036800;28;20638;-60
2022/03/16 02:59:48;;;;;;;211.65;36.90;;;3.70;99.90;;;;;;5058430;28;20101;-60
2022/03/16 03:02:14;;;;;;;73.97;19.05;;;3.70;99.90;;;;;;5058971;28;20094;-60
2022/03/16 03:04:39;;;;;;;33.78;15.95;;;3.70;99.90;;;;;;5059279;28;20051;-60
2022/03/16 03:07:05;;;;;;;53.45;16.98;;;3.80;99.90;;;;;;5059089;28;20037;-61
2022/03/16 03:09:32;;;;;;;73.30;19.30;;;3.90;99.90;;;;;;5059172;28;20148;-61
2022/03/16 03:11:59;;;;;;;39.92;14.73;;;4.00;99.90;;;;;;5059187;28;20077;-59
2022/03/16 03:14:26;;;;;;;93.53;19.90;;;4.10;99.90;;;;;;5058610;28;20044;-61
2022/03/16 03:16:52;;;;;;;138.93;27.52;;;4.10;99.90;;;;;;5058444;28;20064;-59
2022/03/16 03:19:18;;;;;;;178.60;32.55;;;4.10;99.90;;;;;;5059054;28;20041;-59
2022/03/16 03:21:43;;;;;;;37.58;16.85;;;4.00;99.90;;;;;;5058612;28;20488;-60
2022/03/16 03:24:09;;;;;;;29.20;14.52;;;4.10;99.90;;;;;;5058698;28;20385;-60
2022/03/16 03:26:35;;;;;;;58.25;20.50;;;4.10;99.90;;;;;;5058201;28;20043;-60
2022/03/16 03:29:01;;;;;;;67.07;18.92;;;4.20;99.90;;;;;;5058471;28;20063;-60
2022/03/16 03:31:26;;;;;;;41.30;18.17;;;4.30;99.90;;;;;;5058533;28;20044;-59
2022/03/16 03:33:52;;;;;;;72.18;20.42;;;4.30;99.90;;;;;;5039836;28;20685;-60
2022/03/16 03:36:17;;;;;;;69.95;20.25;;;4.40;99.90;;;;;;5058066;28;20052;-59
2022/03/16 03:38:43;;;;;;;180.52;35.88;;;4.40;99.90;;;;;;5058662;28;20125;-59
2022/03/16 03:41:08;;;;;;;44.53;19.90;;;4.30;99.90;;;;;;5058322;28;20063;-60
2022/03/16 03:43:34;;;;;;;105.63;25.13;;;4.30;99.90;;;;;;5040248;28;20079;-60
2022/03/16 03:45:59;;;;;;;240.23;34.88;;;4.40;99.90;;;;;;5058322;28;20052;-60
2022/03/16 03:48:25;;;;;;;226.23;35.50;;;4.30;99.90;;;;;;5057491;28;20040;-59
2022/03/16 03:50:51;;;;;;;283.48;42.67;;;4.10;99.90;;;;;;5040180;28;21018;-59
2022/03/16 03:53:16;;;;;;;475.42;67.00;;;4.10;99.90;;;;;;5050612;28;20045;-59
2022/03/16 03:55:42;;;;;;;462.48;67.47;;;4.00;99.90;;;;;;5057520;28;20090;-59
2022/03/16 03:58:08;;;;;;;285.30;42.47;;;3.90;99.90;;;;;;5057598;28;20048;-60
2022/03/16 04:00:33;;;;;;;478.42;65.13;;;3.90;99.90;;;;;;5039813;28;20056;-60
2022/03/16 04:02:59;;;;;;;309.25;44.67;;;3.80;99.90;;;;;;5057348;28;20055;-61
2022/03/16 04:05:25;;;;;;;412.45;53.85;;;3.70;99.90;;;;;;5058166;28;20051;-60
2022/03/16 04:07:50;;;;;;;399.33;51.25;;;3.60;99.90;;;;;;5057665;28;20041;-59
2022/03/16 04:10:16;;;;;;;368.85;46.88;;;3.50;99.90;;;;;;5055948;28;20048;-60
2022/03/16 04:12:43;;;;;;;321.73;42.40;;;3.30;99.90;;;;;;5057798;28;20044;-61
2022/03/16 04:15:09;;;;;;;247.75;35.60;;;3.20;99.90;;;;;;5057508;28;20048;-59
2022/03/16 04:17:34;;;;;;;264.50;35.15;;;3.20;99.90;;;;;;5039288;28;20045;-59
2022/03/16 04:20:00;;;;;;;226.02;32.85;;;3.10;99.90;;;;;;5058024;28;20106;-59
2022/03/16 04:22:26;;;;;;;233.23;34.80;;;3.10;99.90;;;;;;5058051;28;20155;-61
2022/03/16 04:24:52;;;;;;;175.00;29.60;;;3.00;99.90;;;;;;5057150;28;20052;-59
2022/03/16 04:27:20;;;;;;;123.45;24.30;;;4.10;99.90;;;;;;5057828;28;20614;-59
2022/03/16 04:29:46;;;;;;;270.08;38.80;;;3.10;99.90;;;;;;5057143;28;20045;-59
2022/03/16 04:32:11;;;;;;;123.82;25.20;;;3.20;99.90;;;;;;5057214;28;20044;-60
2022/03/16 04:34:37;;;;;;;48.38;16.02;;;3.20;99.90;;;;;;5058279;28;20045;-62
2022/03/16 04:37:02;;;;;;;100.38;22.00;;;3.40;99.90;;;;;;5057029;28;20036;-60
2022/03/16 04:39:28;;;;;;;60.55;17.73;;;3.50;99.90;;;;;;5057322;28;20460;-62
2022/03/16 04:41:54;;;;;;;45.30;15.23;;;3.60;99.90;;;;;;5056768;28;20044;-59
2022/03/16 04:44:19;;;;;;;250.00;36.17;;;3.60;99.90;;;;;;5056597;28;20040;-59
2022/03/16 04:46:45;;;;;;;294.45;45.53;;;3.70;99.90;;;;;;5038731;28;20048;-59
2022/03/16 04:49:10;;;;;;;431.08;58.60;;;3.50;99.90;;;;;;5057149;28;20037;-59
2022/03/16 04:51:36;;;;;;;315.70;43.67;;;3.40;99.90;;;;;;5056199;28;20098;-60
2022/03/16 04:54:01;;;;;;;175.93;30.67;;;3.30;99.90;;;;;;5056954;28;20049;-59
2022/03/16 04:56:27;;;;;;;88.05;24.00;;;3.30;99.90;;;;;;5057548;28;20842;-60
2022/03/16 04:58:52;;;;;;;130.70;25.15;;;3.40;99.90;;;;;;5056230;28;20060;-59
2022/03/16 05:01:21;;;;;;;95.28;21.77;;;3.50;99.90;;;;;;5056375;28;20040;-59
2022/03/16 05:03:47;;;;;;;133.55;25.33;;;3.60;99.90;;;;;;5057029;28;20076;-59
2022/03/16 05:06:12;;;;;;;144.13;26.38;;;3.80;99.90;;;;;;5055974;28;20148;-60
2022/03/16 05:08:38;;;;;;;80.82;21.65;;;3.80;99.90;;;;;;5056924;28;20571;-60
2022/03/16 05:11:04;;;;;;;122.22;26.27;;;3.90;99.90;;;;;;5056891;28;20523;-59
2022/03/16 05:13:30;;;;;;;133.95;26.48;;;3.90;99.90;;;;;;5056175;28;20121;-60
2022/03/16 05:15:56;;;;;;;105.57;26.15;;;4.00;99.90;;;;;;5056473;28;20041;-59
2022/03/16 05:18:23;;;;;;;145.93;27.40;;;4.00;99.90;;;;;;5056659;28;20058;-61
2022/03/16 05:20:49;;;;;;;81.68;25.35;;;4.00;99.90;;;;;;5055628;28;20158;-60
2022/03/16 05:23:14;;;;;;;70.03;20.95;;;4.10;99.90;;;;;;5056402;28;20072;-60
2022/03/16 05:25:41;;;;;;;294.92;44.10;;;4.10;99.90;;;;;;5057014;28;20167;-60
2022/03/16 05:28:07;;;;;;;219.30;36.53;;;4.10;99.90;;;;;;5054902;28;20052;-60
2022/03/16 05:30:33;;;;;;;169.35;29.98;;;4.00;99.90;;;;;;5056564;28;20052;-59
2022/03/16 05:33:02;;;;;;;254.18;39.95;;;3.80;99.90;;;;;;5056661;28;20058;-60
2022/03/16 05:35:29;;;;;;;282.98;40.25;;;3.70;99.90;;;;;;5056263;28;20061;-59
2022/03/16 05:37:55;;;;;;;182.70;31.20;;;3.60;99.90;;;;;;5056488;28;20044;-60
2022/03/16 05:40:20;;;;;;;57.75;18.52;;;3.40;99.90;;;;;;5056091;28;20575;-60
2022/03/16 05:42:46;;;;;;;102.00;26.10;;;3.40;99.90;;;;;;5053469;28;20619;-60
2022/03/16 05:45:12;;;;;;;63.38;21.92;;;3.50;99.90;;;;;;5053554;28;20218;-60
2022/03/16 05:47:38;;;;;;;73.55;21.90;;;3.60;99.90;;;;;;5052950;28;20054;-60
2022/03/16 05:50:06;;;;;;;88.82;25.98;;;3.60;99.90;;;;;;5053325;28;20049;-60
2022/03/16 05:52:32;;;;;;;107.32;24.38;;;3.70;99.90;;;;;;5052734;28;20531;-60
2022/03/16 05:54:59;;;;;;;95.38;23.75;;;3.70;99.90;;;;;;5052616;28;20083;-60
2022/03/16 05:57:25;;;;;;;103.47;25.48;;;3.70;99.90;;;;;;5037804;28;20041;-61
2022/03/16 05:59:52;;;;;;;116.55;25.98;;;3.70;99.90;;;;;;5052202;28;20110;-59
2022/03/16 06:02:18;;;;;;;168.07;32.42;;;3.60;99.90;;;;;;5052385;28;20050;-60
2022/03/16 06:04:44;;;;;;;200.38;35.35;;;3.40;99.90;;;;;;5053226;28;20506;-59
2022/03/16 06:07:11;;;;;;;199.70;34.90;;;3.10;99.90;;;;;;5052702;28;20052;-60
2022/03/16 06:09:36;;;;;;;164.90;30.55;;;3.00;99.90;;;;;;5052851;28;20048;-61
2022/03/16 06:12:03;;;;;;;174.23;32.67;;;3.00;99.90;;;;;;5053087;28;20040;-59
2022/03/16 06:14:29;;;;;;;99.47;25.08;;;2.80;99.90;;;;;;5052933;28;20040;-60
2022/03/16 06:16:55;;;;;;;104.00;25.38;;;2.90;99.90;;;;;;5052233;28;20773;-59
2022/03/16 06:19:24;;;;;;;104.18;24.27;;;3.00;99.90;;;;;;5034795;28;20107;-61
2022/03/16 06:21:50;;;;;;;131.15;30.23;;;3.00;99.90;;;;;;5052039;28;20056;-60
2022/03/16 06:24:16;;;;;;;155.07;32.05;;;3.00;99.90;;;;;;5051825;28;20687;-60
2022/03/16 06:26:42;;;;;;;148.13;31.17;;;3.00;99.90;;;;;;5035012;28;20161;-60
2022/03/16 06:29:07;;;;;;;189.23;38.40;;;3.00;99.90;;;;;;5052994;28;20162;-61
2022/03/16 06:31:34;;;;;;;178.43;36.08;;;3.10;99.90;;;;;;5052246;28;20079;-60
2022/03/16 06:34:00;;;;;;;87.05;24.77;;;3.10;99.90;;;;;;5051726;28;20067;-61
2022/03/16 06:36:26;;;;;;;148.80;32.60;;;3.20;99.90;;;;;;5037404;28;20052;-60
2022/03/16 06:38:52;;;;;;;114.35;27.33;;;3.20;99.90;;;;;;5033474;28;20041;-59
2022/03/16 06:41:18;;;;;;;69.32;19.42;;;3.30;99.90;;;;;;5020317;28;20336;-59
2022/03/16 06:43:43;;;;;;;31.65;18.20;;;3.30;99.90;;;;;;5033456;28;20040;-60
2022/03/16 06:46:09;;;;;;;33.75;18.73;;;3.50;99.90;;;;;;5038465;28;20052;-60
2022/03/16 06:48:35;;;;;;;32.55;18.52;;;3.70;99.90;;;;;;5042223;28;20131;-60
2022/03/16 06:51:00;;;;;;;38.42;20.63;;;3.80;99.90;;;;;;5036919;28;20682;-59
2022/03/16 06:53:27;;;;;;;29.92;17.38;;;4.00;99.90;;;;;;5018329;28;20796;-59
2022/03/16 06:55:53;;;;;;;32.08;18.92;;;4.10;99.90;;;;;;5035439;28;20126;-59
2022/03/16 06:58:19;;;;;;;39.92;20.00;;;4.20;99.90;;;;;;5035202;28;20076;-59
2022/03/16 07:00:45;;;;;;;31.10;18.45;;;4.40;99.90;;;;;;5037076;28;20052;-59
2022/03/16 07:03:10;;;;;;;58.67;21.73;;;4.50;99.90;;;;;;5038833;28;20051;-60
2022/03/16 07:05:38;;;;;;;53.55;20.48;;;4.60;99.90;;;;;;5036246;28;20044;-62
2022/03/16 07:08:07;;;;;;;75.55;22.42;;;4.70;99.90;;;;;;5038776;28;20563;-61
2022/03/16 07:10:34;;;;;;;55.25;20.50;;;4.70;99.90;;;;;;5039450;28;20691;-60
2022/03/16 07:13:03;;;;;;;113.22;26.23;;;4.80;99.90;;;;;;5032511;28;20063;-60
2022/03/16 07:15:33;;;;;;;57.72;21.15;;;5.80;99.90;;;;;;5039947;28;20609;-62
2022/03/16 07:17:59;;;;;;;79.88;23.33;;;4.80;99.90;;;;;;5036531;28;20044;-61
2022/03/16 07:20:24;;;;;;;80.60;22.92;;;4.80;99.90;;;;;;5036509;28;20745;-61
2022/03/16 07:23:10;;;;;;;67.07;24.05;;;4.90;99.90;;;;;;5034142;28;20037;-60
2022/03/16 07:25:41;;;;;;;105.03;27.30;;;4.90;99.90;;;;;;5012271;28;20075;-62
2022/03/16 07:28:08;;;;;;;104.20;26.05;;;4.90;99.90;;;;;;5017259;28;20068;-60
2022/03/16 07:30:34;;;;;;;103.57;30.70;;;4.80;99.90;;;;;;5031709;28;20571;-59
2022/03/16 07:33:00;;;;;;;76.88;23.73;;;4.80;99.90;;;;;;5049442;28;20114;-60
2022/03/16 07:35:28;;;;;;;60.92;23.23;;;4.70;99.90;;;;;;5052205;28;20060;-60
2022/03/16 07:37:55;;;;;;;47.90;22.48;;;4.80;99.90;;;;;;5051682;28;20128;-59
2022/03/16 07:40:21;;;;;;;42.45;21.10;;;4.90;99.90;;;;;;5032983;28;20059;-59
2022/03/16 07:42:48;;;;;;;38.60;22.60;;;5.00;99.90;;;;;;5051717;28;20465;-60
2022/03/16 07:45:15;;;;;;;38.53;23.10;;;5.10;99.90;;;;;;4345332;28;10000814;-60
2022/03/16 07:47:42;;;;;;;33.38;22.65;;;5.30;99.90;;;;;;5037849;28;20099;-60
2022/03/16 07:50:09;;;;;;;31.05;22.40;;;5.40;99.90;;;;;;5034334;28;20088;-60
2022/03/16 07:52:35;;;;;;;37.15;23.98;;;5.60;99.90;;;;;;5016564;28;20049;-61
2022/03/16 07:55:01;;;;;;;34.63;21.10;;;5.70;99.90;;;;;;5037813;28;20049;-60
2022/03/16 07:57:26;;;;;;;30.30;21.27;;;5.90;99.90;;;;;;5019942;28;20714;-60
2022/03/16 07:59:52;;;;;;;40.22;21.58;;;6.00;99.90;;;;;;5043398;28;20043;-59
2022/03/16 08:02:17;;;;;;;34.13;22.33;;;6.10;99.90;;;;;;5038269;28;20204;-60
2022/03/16 08:04:43;;;;;;;32.90;22.40;;;6.30;99.90;;;;;;5019334;28;21479;-60
2022/03/16 08:07:11;;;;;;;32.22;22.02;;;6.50;99.90;;;;;;5041936;28;20157;-61
2022/03/16 08:09:37;;;;;;;36.97;22.75;;;6.80;99.90;;;;;;5038152;28;20105;-60
2022/03/16 08:12:04;;;;;;;34.65;20.83;;;7.20;99.90;;;;;;5039273;28;20049;-61
2022/03/16 08:14:32;;;;;;;31.92;21.48;;;7.50;99.90;;;;;;5035063;28;20043;-61
2022/03/16 08:16:58;;;;;;;29.70;21.15;;;7.60;99.90;;;;;;5040643;28;20041;-61
2022/03/16 08:19:23;;;;;;;29.88;21.65;;;7.70;99.90;;;;;;5035521;28;20150;-60
2022/03/16 08:21:49;;;;;;;29.95;20.20;;;7.80;99.90;;;;;;5037635;28;20052;-60
2022/03/16 08:24:14;;;;;;;39.97;21.73;;;8.00;99.90;;;;;;5043562;28;20028;-60
2022/03/16 08:26:41;;;;;;;31.75;20.73;;;8.30;99.90;;;;;;5037027;28;20040;-60
2022/03/16 08:29:07;;;;;;;28.08;19.65;;;8.80;99.90;;;;;;5040615;28;20144;-61
2022/03/16 08:31:33;;;;;;;31.48;19.55;;;9.20;99.90;;;;;;5034714;28;20124;-60
2022/03/16 08:33:59;;;;;;;31.38;21.52;;;9.40;99.90;;;;;;5039272;28;20060;-59
2022/03/16 08:36:25;;;;;;;35.03;21.90;;;9.40;99.90;;;;;;5039541;28;20147;-60
2022/03/16 08:38:54;;;;;;;33.33;21.10;;;9.60;99.90;;;;;;5038078;28;20102;-60
2022/03/16 08:41:20;;;;;;;34.47;21.13;;;9.90;99.90;;;;;;5040841;28;20041;-60
2022/03/16 08:43:45;;;;;;;32.97;21.85;;;10.80;99.90;;;;;;5035033;28;20072;-60
2022/03/16 08:46:11;;;;;;;28.20;20.35;;;11.70;99.90;;;;;;5041942;28;20119;-60
2022/03/16 08:48:37;;;;;;;35.58;20.77;;;12.50;99.90;;;;;;5043696;28;20050;-60
2022/03/16 08:51:03;;;;;;;36.17;21.70;;;13.30;99.90;;;;;;5036648;28;20048;-62
2022/03/16 08:53:29;;;;;;;26.85;17.80;;;14.10;99.90;;;;;;5040655;28;20049;-61
2022/03/16 08:55:55;;;;;;;35.05;20.83;;;14.40;99.90;;;;;;5040634;28;20127;-60
2022/03/16 08:58:21;;;;;;;28.00;17.77;;;15.00;99.90;;;;;;5034905;28;20088;-61
2022/03/16 09:00:46;;;;;;;24.55;19.00;;;15.60;99.90;;;;;;5044051;28;20952;-60
2022/03/16 09:03:12;;;;;;;27.40;19.42;;;15.80;99.90;;;;;;5034730;28;20051;-60
2022/03/16 09:05:38;;;;;;;27.30;17.45;;;16.20;99.90;;;;;;4686981;28;10000546;-60
2022/03/16 09:08:03;;;;;;;25.75;18.40;;;16.50;99.90;;;;;;5038816;28;20055;-61
2022/03/16 09:10:29;;;;;;;25.17;17.88;;;16.60;99.90;;;;;;5041042;28;20037;-61
2022/03/16 09:12:55;;;;;;;25.23;17.13;;;16.90;99.90;;;;;;5033300;28;20054;-59
2022/03/16 09:15:20;;;;;;;23.60;18.13;;;17.10;99.90;;;;;;5038460;28;20090;-61
2022/03/16 09:17:46;;;;;;;26.00;16.95;;;17.20;99.90;;;;;;5033317;28;20049;-61
2022/03/16 09:20:11;;;;;;;27.98;18.63;;;17.30;99.90;;;;;;5036191;28;20045;-61
2022/03/16 09:22:37;;;;;;;29.58;19.48;;;17.50;99.90;;;;;;5033149;28;20048;-61
2022/03/16 09:25:03;;;;;;;28.38;18.20;;;17.50;99.90;;;;;;5033348;28;20114;-61
2022/03/16 09:27:29;;;;;;;25.05;16.08;;;17.50;99.90;;;;;;5032280;28;20049;-60
2022/03/16 09:29:55;;;;;;;25.83;16.20;;;17.30;99.90;;;;;;5034172;28;20087;-61
2022/03/16 09:32:22;;;;;;;25.33;17.83;;;17.10;99.90;;;;;;5036763;28;20131;-61
2022/03/16 09:34:49;;;;;;;25.45;17.67;;;17.00;99.90;;;;;;5036460;28;20052;-61
2022/03/16 09:37:16;;;;;;;28.27;16.80;;;16.70;99.90;;;;;;5036112;28;20779;-60
2022/03/16 09:39:41;;;;;;;23.92;16.50;;;16.80;99.90;;;;;;5042259;28;20291;-60
2022/03/16 09:42:09;;;;;;;23.10;17.17;;;17.30;99.90;;;;;;5038029;28;20493;-60
2022/03/16 09:44:36;;;;;;;17.92;14.25;;;17.50;99.90;;;;;;5035064;28;20855;-60
2022/03/16 09:47:03;;;;;;;23.63;15.98;;;17.60;99.00;;;;;;5042300;28;20051;-60
2022/03/16 09:49:29;;;;;;;22.20;14.18;;;17.40;98.50;;;;;;5034895;28;20153;-60
2022/03/16 09:51:55;;;;;;;19.25;13.02;;;17.30;97.80;;;;;;5039878;28;20045;-60
2022/03/16 09:54:22;;;;;;;19.80;13.48;;;17.30;98.10;;;;;;5013345;28;20052;-61
2022/03/16 09:56:47;;;;;;;16.75;11.27;;;17.50;97.70;;;;;;5037041;28;20052;-60
2022/03/16 09:59:14;;;;;;;18.15;12.25;;;17.60;96.50;;;;;;5037411;28;20333;-60
2022/03/16 10:01:42;;;;;;;21.55;13.75;;;17.90;96.50;;;;;;5040615;28;20041;-60
2022/03/16 10:04:08;;;;;;;20.05;12.88;;;18.60;96.40;;;;;;5035350;28;20148;-60
2022/03/16 10:06:38;;;;;;;18.00;14.02;;;18.80;95.00;;;;;;5038579;28;20485;-60
2022/03/16 10:15:02;;;;;;;18.23;11.15;;;18.20;93.40;;;;;;5038184;28;20059;-60
2022/03/16 10:17:46;;;;;;;18.40;12.40;;;18.20;92.30;;;;;;5035198;28;20052;-59
2022/03/16 10:20:21;;;;;;;17.52;13.25;;;18.10;93.30;;;;;;5012141;28;20076;-60
2022/03/16 10:23:10;;;;;;;13.95;9.70;;;18.40;93.40;;;;;;5034384;28;20045;-59
2022/03/16 10:25:37;;;;;;;12.60;9.38;;;18.60;91.90;;;;;;5012659;28;20044;-61
2022/03/16 10:28:16;;;;;;;14.98;9.73;;;18.90;91.20;;;;;;5038646;28;20137;-61
2022/03/16 10:31:05;;;;;;;11.90;7.32;;;19.00;90.10;;;;;;5035341;28;20044;-60
2022/03/16 10:33:51;;;;;;;10.88;8.23;;;19.10;89.30;;;;;;5035266;28;20067;-59
2022/03/16 10:36:20;;;;;;;11.30;7.35;;;19.10;86.30;;;;;;5012802;28;20717;-60
2022/03/16 10:39:02;;;;;;;10.93;7.90;;;19.30;85.60;;;;;;5038016;28;20044;-60
2022/03/16 10:47:02;;;;;;;12.95;9.38;;;17.80;84.10;;;;;;5036073;28;20535;-61
2022/03/16 10:49:30;;;;;;;15.00;10.18;;;17.60;86.70;;;;;;5040880;28;20052;-60
2022/03/16 10:52:18;;;;;;;16.70;9.02;;;17.60;88.00;;;;;;5034009;28;20048;-60
2022/03/16 10:54:44;;;;;;;14.95;9.25;;;17.40;87.40;;;;;;5041611;28;20132;-62
2022/03/16 10:57:12;;;;;;;11.75;9.35;;;16.60;88.60;;;;;;5037003;28;20062;-61
2022/03/16 10:59:40;;;;;;;14.65;9.50;;;16.00;90.60;;;;;;5050073;28;20036;-60
2022/03/16 11:02:12;;;;;;;16.13;10.23;;;15.50;91.40;;;;;;5051843;28;20700;-60
2022/03/16 11:04:39;;;;;;;16.30;9.07;;;15.10;92.30;;;;;;5053012;28;20051;-61
2022/03/16 11:07:06;;;;;;;15.38;10.90;;;14.90;93.20;;;;;;5053619;28;20414;-61
2022/03/16 11:09:32;;;;;;;14.45;10.35;;;14.80;93.90;;;;;;5053013;28;20890;-60
2022/03/16 11:14:44;;;;;;;15.18;9.88;;;14.80;94.30;;;;;;5054188;28;20052;-59
2022/03/16 11:17:11;;;;;;;18.00;9.27;;;14.80;94.70;;;;;;5053128;28;20097;-61
2022/03/16 11:19:38;;;;;;;14.82;8.80;;;14.80;94.20;;;;;;5055013;28;20041;-61
2022/03/16 11:22:21;;;;;;;15.50;10.10;;;14.70;94.10;;;;;;5057865;28;20045;-61
2022/03/16 11:24:56;;;;;;;17.80;12.45;;;14.60;94.50;;;;;;5039597;28;20055;-63
2022/03/16 11:27:46;;;;;;;16.45;9.98;;;14.60;94.90;;;;;;5058083;28;20060;-64
2022/03/16 11:30:33;;;;;;;16.58;10.95;;;14.60;94.70;;;;;;5057605;28;20106;-62
2022/03/16 11:33:08;;;;;;;14.63;9.60;;;14.40;94.90;;;;;;5043351;28;20110;-61
2022/03/16 11:35:44;;;;;;;16.45;10.32;;;14.10;95.00;;;;;;5037323;28;20041;-60
2022/03/16 11:38:13;;;;;;;15.02;10.32;;;14.50;95.50;;;;;;5035437;28;20044;-60
2022/03/16 11:40:40;;;;;;;13.90;9.00;;;14.60;95.50;;;;;;5035919;28;20142;-61
2022/03/16 11:43:11;;;;;;;15.27;9.88;;;14.60;94.80;;;;;;5036158;28;20214;-60
2022/03/16 11:45:51;;;;;;;13.05;8.75;;;14.60;94.50;;;;;;5036522;28;20752;-60
2022/03/16 11:48:28;;;;;;;14.02;8.55;;;14.50;94.60;;;;;;5052961;28;20105;-61
2022/03/16 11:51:09;;;;;;;16.02;10.80;;;14.50;94.40;;;;;;5049898;28;20037;-61
2022/03/16 11:56:21;;;;;;;14.10;10.48;;;14.50;94.30;;;;;;5038364;28;20671;-61
2022/03/16 11:59:02;;;;;;;15.25;8.98;;;14.40;94.40;;;;;;5051280;28;20055;-60
2022/03/16 12:01:33;;;;;;;13.63;8.60;;;14.50;94.70;;;;;;5057408;28;20825;-60
2022/03/16 12:04:29;;;;;;;17.55;9.90;;;14.50;94.10;;;;;;5057710;28;20136;-60
2022/03/16 12:07:02;;;;;;;12.15;8.18;;;14.60;94.60;;;;;;5055980;28;20048;-60
2022/03/16 12:09:39;;;;;;;14.02;10.60;;;14.60;94.20;;;;;;5057162;28;20044;-60
2022/03/16 12:15:11;;;;;;;18.60;11.25;;;14.50;94.40;;;;;;5055271;28;20056;-60
2022/03/16 12:17:54;;;;;;;20.20;10.50;;;14.60;94.50;;;;;;5056123;28;20389;-60
2022/03/16 12:20:30;;;;;;;15.57;9.90;;;14.60;94.60;;;;;;5056815;28;20526;-61
2022/03/16 12:23:05;;;;;;;13.55;9.27;;;14.70;94.80;;;;;;5056578;28;20404;-61
2022/03/16 12:25:33;;;;;;;14.82;8.65;;;14.70;94.40;;;;;;5039712;28;20040;-60
2022/03/16 12:30:50;;;;;;;17.08;9.95;;;14.80;94.00;;;;;;5056597;28;20089;-60
2022/03/16 12:33:20;;;;;;;;;;;14.70;93.80;;;;;;5057237;28;20647;-60
2022/03/16 12:35:54;;;;;;;13.15;6.97;;;14.70;94.30;;;;;;5057034;28;20716;-61
2022/03/16 12:38:22;;;;;;;19.80;8.88;;;14.70;93.60;;;;;;5057909;28;20770;-60
2022/03/16 12:43:33;;;;;;;15.82;9.80;;;14.80;93.70;;;;;;5056239;28;20056;-60
2022/03/16 12:46:07;;;;;;;12.35;8.68;;;14.80;93.90;;;;;;5057438;28;20056;-62
2022/03/16 12:48:36;;;;;;;15.82;9.30;;;14.90;93.70;;;;;;5056927;28;20048;-60
2022/03/16 12:51:07;;;;;;;15.68;10.38;;;14.90;93.00;;;;;;5056226;28;20051;-59
2022/03/16 12:53:45;;;;;;;13.20;8.98;;;14.90;93.00;;;;;;5056778;28;20044;-60
2022/03/16 12:56:14;;;;;;;16.52;9.82;;;14.90;93.30;;;;;;5053810;28;20056;-60
2022/03/16 12:58:50;;;;;;;19.80;10.55;;;15.00;93.30;;;;;;5050480;28;20114;-60
2022/03/16 13:01:20;;;;;;;13.57;8.07;;;15.50;93.00;;;;;;5044711;28;20114;-60